createdAt,value
2023-02-27T08:15:24.392Z,95166.00
2023-02-27T08:16:25.595Z,95168.00
2023-02-27T08:17:25.160Z,95168.00
2023-02-27T08:18:25.619Z,95166.00
2023-02-27T08:19:25.189Z,95168.00
2023-02-27T08:20:25.133Z,95168.00
2023-02-27T08:21:25.481Z,95168.00
2023-02-27T08:22:25.116Z,95164.00
2023-02-27T08:23:25.132Z,95166.00
2023-02-27T08:24:25.374Z,95164.00
2023-02-27T08:25:25.131Z,95166.00
2023-02-27T08:26:25.707Z,95164.00
2023-02-27T08:27:25.632Z,95166.00
2023-02-27T08:28:25.370Z,95166.00
2023-02-27T08:29:25.509Z,95166.00
2023-02-27T08:30:25.250Z,95164.00
2023-02-27T08:31:25.144Z,95166.00
2023-02-27T08:32:25.434Z,95168.00
2023-02-27T08:33:25.014Z,95168.00
2023-02-27T08:34:24.998Z,95172.00
2023-02-27T08:35:28.176Z,95170.00
2023-02-27T08:36:26.160Z,95172.00
2023-02-27T08:37:26.610Z,95174.00
2023-02-27T08:38:26.505Z,95170.00
2023-02-27T08:39:25.081Z,95172.00
2023-02-27T08:40:25.364Z,95170.00
2023-02-27T08:41:25.062Z,95174.00
2023-02-27T08:42:26.939Z,95174.00
2023-02-27T08:43:25.373Z,95174.00
2023-02-27T08:44:25.036Z,95177.00
2023-02-27T08:45:25.073Z,95177.00
2023-02-27T08:46:25.365Z,95175.00
2023-02-27T08:47:25.046Z,95179.00
2023-02-27T08:48:25.378Z,95177.00
2023-02-27T08:49:24.989Z,95175.00
2023-02-27T08:50:25.380Z,95177.00
2023-02-27T08:51:25.727Z,95175.00
2023-02-27T08:52:25.153Z,95177.00
2023-02-27T08:53:24.957Z,95179.00
2023-02-27T08:54:25.305Z,95177.00
2023-02-27T08:55:25.674Z,95181.00
2023-02-27T08:56:25.110Z,95183.00
2023-02-27T08:57:24.919Z,95185.00
2023-02-27T08:58:24.907Z,95183.00
2023-02-27T08:59:25.372Z,95187.00
2023-02-27T09:00:25.548Z,95183.00
2023-02-27T09:01:25.248Z,95183.00
2023-02-27T09:02:24.906Z,95185.00
2023-02-27T09:03:24.906Z,95187.00
2023-02-27T09:04:24.856Z,95185.00
2023-02-27T09:05:24.846Z,95183.00
2023-02-27T09:06:26.361Z,95183.00
2023-02-27T09:07:25.057Z,95187.00
2023-02-27T09:08:25.045Z,95187.00
2023-02-27T09:09:25.033Z,95185.00
2023-02-27T09:10:25.037Z,95189.00
2023-02-27T09:11:25.278Z,95191.00
2023-02-27T09:12:25.027Z,95187.00
2023-02-27T09:13:25.380Z,95187.00
2023-02-27T09:14:25.007Z,95187.00
2023-02-27T09:15:24.984Z,95185.00
2023-02-27T09:16:25.708Z,95185.00
2023-02-27T09:17:24.962Z,95185.00
2023-02-27T09:18:24.979Z,95185.00
2023-02-27T09:19:24.968Z,95183.00
2023-02-27T09:20:24.941Z,95185.00
2023-02-27T09:21:25.393Z,95185.00
2023-02-27T09:22:24.918Z,95187.00
2023-02-27T09:23:24.906Z,95185.00
2023-02-27T09:24:24.903Z,95185.00
2023-02-27T09:25:24.885Z,95187.00
2023-02-27T09:26:40.744Z,95187.00
2023-02-27T09:27:24.871Z,95181.00
2023-02-27T09:28:24.894Z,95191.00
2023-02-27T09:29:24.853Z,95189.00
2023-02-27T09:30:24.846Z,95189.00
2023-02-27T09:31:24.884Z,95189.00
2023-02-27T09:32:25.073Z,95191.00
2023-02-27T09:33:27.012Z,95189.00
2023-02-27T09:34:25.385Z,95191.00
2023-02-27T09:35:24.820Z,95193.00
2023-02-27T09:36:24.861Z,95195.00
2023-02-27T09:37:24.910Z,95197.00
2023-02-27T09:38:24.885Z,95199.00
2023-02-27T09:39:24.761Z,95201.00
2023-02-27T09:40:24.755Z,95201.00
2023-02-27T09:41:25.118Z,95201.00
2023-02-27T09:42:24.738Z,95203.00
2023-02-27T09:43:24.804Z,95201.00
2023-02-27T09:44:39.844Z,95201.00
2023-02-27T09:45:32.146Z,95203.00
2023-02-27T09:46:25.395Z,95203.00
2023-02-27T09:47:24.729Z,95203.00
2023-02-27T09:48:25.681Z,95205.00
2023-02-27T09:51:24.964Z,95205.00
2023-02-27T09:52:24.656Z,95205.00
2023-02-27T09:53:24.633Z,95205.00
2023-02-27T09:54:24.626Z,95203.00
2023-02-27T09:56:25.277Z,95203.00
2023-02-27T09:58:24.628Z,95203.00
2023-02-27T09:59:24.595Z,95205.00
2023-02-27T10:00:24.908Z,95205.00
2023-02-27T10:03:24.607Z,95205.00
2023-02-27T10:04:24.539Z,95205.00
2023-02-27T10:05:24.534Z,95207.00
2023-02-27T10:06:24.992Z,95207.00
2023-02-27T10:08:24.536Z,95209.00
2023-02-27T10:09:24.898Z,95209.00
2023-02-27T10:10:25.391Z,95211.00
2023-02-27T10:11:24.903Z,95213.00
2023-02-27T10:13:24.449Z,95217.00
2023-02-27T10:14:24.452Z,95217.00
2023-02-27T10:16:24.472Z,95219.00
2023-02-27T10:17:24.418Z,95217.00
2023-02-27T10:18:29.062Z,95222.00
2023-02-27T10:19:24.398Z,95222.00
2023-02-27T10:31:25.793Z,95226.00
2023-02-27T10:34:25.493Z,95226.00
2023-02-27T10:36:33.950Z,95226.00
2023-02-27T10:44:25.416Z,95226.00
2023-02-27T11:53:26.950Z,95226.00
2023-02-27T13:02:24.412Z,95232.00
2023-02-27T14:18:33.647Z,95230.00
2023-02-27T14:23:25.563Z,95228.00
2023-02-27T14:50:25.463Z,95234.00
2023-02-27T15:00:37.630Z,95248.00
2023-02-27T15:02:22.513Z,95248.00
2023-02-27T15:04:23.776Z,95248.00
2023-02-27T15:13:22.401Z,95248.00
2023-02-27T15:15:22.583Z,95256.00
2023-02-27T15:16:22.957Z,95256.00
2023-02-27T15:17:22.797Z,95254.00
2023-02-27T15:18:22.617Z,95252.00
2023-02-27T15:19:23.033Z,95254.00
2023-02-27T15:20:22.762Z,95254.00
2023-02-27T15:21:22.448Z,95254.00
2023-02-27T15:22:37.557Z,95258.00
2023-02-27T15:24:23.176Z,95260.00
2023-02-27T15:25:22.648Z,95260.00
2023-02-27T15:26:22.587Z,95260.00
2023-02-27T15:27:23.680Z,95258.00
2023-02-27T15:28:22.548Z,95260.00
2023-02-27T15:29:23.221Z,95264.00
2023-02-27T15:30:22.599Z,95264.00
2023-02-27T15:31:22.860Z,95266.00
2023-02-27T15:34:23.285Z,95264.00
2023-02-27T15:35:22.526Z,95264.00
2023-02-27T15:36:22.343Z,95266.00
2023-02-27T15:37:22.528Z,95262.00
2023-02-27T15:39:22.486Z,95262.00
2023-02-27T15:40:22.480Z,95262.00
2023-02-27T15:41:22.526Z,95262.00
2023-02-27T15:42:22.635Z,95266.00
2023-02-27T15:44:22.583Z,95264.00
2023-02-27T15:45:22.637Z,95264.00
2023-02-27T15:46:22.673Z,95264.00
2023-02-27T15:47:22.518Z,95266.00
2023-02-27T15:48:22.623Z,95266.00
2023-02-27T15:49:22.504Z,95268.00
2023-02-27T15:50:22.485Z,95269.00
2023-02-27T15:51:22.381Z,95264.00
2023-02-27T15:52:22.420Z,95268.00
2023-02-27T15:53:22.502Z,95268.00
2023-02-27T15:54:22.371Z,95269.00
2023-02-27T15:55:21.972Z,95269.00
2023-02-27T15:56:22.464Z,95269.00
2023-02-27T15:57:22.458Z,95268.00
2023-02-27T15:58:22.406Z,95275.00
2023-02-27T16:00:21.888Z,95271.00
2023-02-27T16:01:22.368Z,95273.00
2023-02-27T16:02:22.370Z,95273.00
2023-02-27T16:03:22.159Z,95273.00
2023-02-27T16:04:22.220Z,95275.00
2023-02-27T16:05:21.938Z,95275.00
2023-02-27T16:06:22.388Z,95279.00
2023-02-27T16:07:22.161Z,95279.00
2023-02-27T16:08:22.320Z,95283.00
2023-02-27T16:09:29.109Z,95283.00
2023-02-27T16:10:22.132Z,95281.00
2023-02-27T16:11:23.310Z,95285.00
2023-02-27T16:12:22.824Z,95287.00
2023-02-27T16:13:22.500Z,95285.00
2023-02-27T16:14:23.696Z,95287.00
2023-02-27T16:15:28.696Z,95289.00
2023-02-27T16:16:21.986Z,95291.00
2023-02-27T16:17:21.740Z,95293.00
2023-02-27T16:18:22.030Z,95295.00
2023-02-27T16:19:21.742Z,95297.00
2023-02-27T16:20:21.714Z,95301.00
2023-02-27T16:21:22.541Z,95301.00
2023-02-27T16:22:21.699Z,95303.00
2023-02-27T16:23:22.030Z,95305.00
2023-02-27T16:24:21.677Z,95305.00
2023-02-27T16:25:21.662Z,95303.00
2023-02-27T16:26:21.666Z,95309.00
2023-02-27T16:27:21.645Z,95309.00
2023-02-27T16:29:21.642Z,95311.00
2023-02-27T16:30:21.622Z,95305.00
2023-02-27T16:31:24.670Z,95307.00
2023-02-27T16:32:21.657Z,95303.00
2023-02-27T16:33:22.543Z,95305.00
2023-02-27T16:34:21.590Z,95305.00
2023-02-27T16:35:21.582Z,95305.00
2023-02-27T16:36:21.569Z,95305.00
2023-02-27T16:37:22.535Z,95309.00
2023-02-27T16:38:28.556Z,95309.00
2023-02-27T16:39:22.049Z,95309.00
2023-02-27T16:40:21.725Z,95313.00
2023-02-27T16:41:21.694Z,95313.00
2023-02-27T16:42:21.522Z,95316.00
2023-02-27T16:43:21.495Z,95316.00
2023-02-27T16:44:21.489Z,95315.00
2023-02-27T16:45:21.486Z,95316.00
2023-02-27T16:46:21.488Z,95318.00
2023-02-27T16:47:22.063Z,95316.00
2023-02-27T16:48:21.457Z,95318.00
2023-02-27T16:49:21.451Z,95322.00
2023-02-27T16:50:21.438Z,95322.00
2023-02-27T16:51:21.423Z,95324.00
2023-02-27T16:52:21.417Z,95324.00
2023-02-27T16:53:21.540Z,95326.00
2023-02-27T16:54:21.408Z,95326.00
2023-02-27T16:55:21.393Z,95328.00
2023-02-27T16:56:32.278Z,95332.00
2023-02-27T16:57:21.368Z,95328.00
2023-02-27T16:58:24.056Z,95326.00
2023-02-27T16:59:21.366Z,95328.00
2023-02-27T17:00:21.342Z,95328.00
2023-02-27T17:01:21.356Z,95324.00
2023-02-27T17:02:21.333Z,95332.00
2023-02-27T17:03:21.342Z,95328.00
2023-02-27T17:04:25.805Z,95328.00
2023-02-27T17:05:21.299Z,95332.00
2023-02-27T17:06:21.291Z,95332.00
2023-02-27T17:07:22.052Z,95334.00
2023-02-27T17:08:21.556Z,95336.00
2023-02-27T17:09:21.567Z,95334.00
2023-02-27T17:10:21.251Z,95338.00
2023-02-27T17:11:24.050Z,95338.00
2023-02-27T17:12:21.236Z,95336.00
2023-02-27T17:13:22.050Z,95338.00
2023-02-27T17:14:21.221Z,95340.00
2023-02-27T17:15:21.206Z,95340.00
2023-02-27T17:16:21.234Z,95340.00
2023-02-27T17:17:21.197Z,95340.00
2023-02-27T17:18:21.181Z,95342.00
2023-02-27T17:19:21.203Z,95342.00
2023-02-27T17:20:21.162Z,95344.00
2023-02-27T17:21:21.152Z,95342.00
2023-02-27T17:22:21.157Z,95344.00
2023-02-27T17:23:21.132Z,95346.00
2023-02-27T17:24:21.124Z,95344.00
2023-02-27T17:25:21.112Z,95346.00
2023-02-27T17:26:21.102Z,95350.00
2023-02-27T17:27:22.059Z,95354.00
2023-02-27T17:28:21.197Z,95352.00
2023-02-27T17:29:21.203Z,95350.00
2023-02-27T17:30:21.167Z,95352.00
2023-02-27T17:31:21.162Z,95352.00
2023-02-27T17:32:21.185Z,95354.00
2023-02-27T17:33:21.148Z,95356.00
2023-02-27T17:34:22.069Z,95356.00
2023-02-27T17:35:21.154Z,95356.00
2023-02-27T17:36:20.131Z,95356.00
2023-02-27T17:37:21.105Z,95356.00
2023-02-27T17:38:21.107Z,95354.00
2023-02-27T17:39:21.090Z,95354.00
2023-02-27T17:40:22.069Z,95356.00
2023-02-27T17:41:21.082Z,95354.00
2023-02-27T17:42:21.061Z,95356.00
2023-02-27T17:43:21.562Z,95358.00
2023-02-27T17:44:21.084Z,95358.00
2023-02-27T17:45:21.035Z,95360.00
2023-02-27T17:46:21.084Z,95352.00
2023-02-27T17:47:21.015Z,95358.00
2023-02-27T17:48:21.009Z,95360.00
2023-02-27T17:50:21.075Z,95358.00
2023-02-27T17:51:21.004Z,95362.00
2023-02-27T17:52:20.969Z,95362.00
2023-02-27T17:53:20.955Z,95363.00
2023-02-27T17:54:20.958Z,95365.00
2023-02-27T17:55:20.947Z,95369.00
2023-02-27T17:56:20.937Z,95371.00
2023-02-27T17:58:20.920Z,95373.00
2023-02-27T17:59:20.901Z,95373.00
2023-02-27T18:00:20.894Z,95377.00
2023-02-27T18:01:20.997Z,95377.00
2023-02-27T18:02:20.918Z,95379.00
2023-02-27T18:03:20.865Z,95377.00
2023-02-27T18:04:20.861Z,95377.00
2023-02-27T18:05:20.851Z,95381.00
2023-02-27T18:06:20.845Z,95381.00
2023-02-27T18:07:21.589Z,95379.00
2023-02-27T18:08:20.815Z,95383.00
2023-02-27T18:09:20.823Z,95385.00
2023-02-27T18:10:23.584Z,95389.00
2023-02-27T18:11:20.797Z,95391.00
2023-02-27T18:12:20.786Z,95389.00
2023-02-27T18:13:20.775Z,95389.00
2023-02-27T18:14:21.569Z,95391.00
2023-02-27T18:15:20.754Z,95395.00
2023-02-27T18:16:20.739Z,95395.00
2023-02-27T18:17:20.743Z,95399.00
2023-02-27T18:18:20.725Z,95399.00
2023-02-27T18:19:20.722Z,95409.00
2023-02-27T18:20:20.711Z,95401.00
2023-02-27T18:21:21.170Z,95409.00
2023-02-27T18:22:20.688Z,95401.00
2023-02-27T18:23:20.707Z,95399.00
2023-02-27T18:24:20.669Z,95401.00
2023-02-27T18:25:20.660Z,95411.00
2023-02-27T18:26:29.387Z,95409.00
2023-02-27T18:27:20.651Z,95411.00
2023-02-27T18:28:20.650Z,95413.00
2023-02-27T18:29:20.622Z,95415.00
2023-02-27T18:30:21.086Z,95413.00
2023-02-27T18:31:20.631Z,95409.00
2023-02-27T18:32:20.652Z,95413.00
2023-02-27T18:33:20.586Z,95411.00
2023-02-27T18:34:20.592Z,95411.00
2023-02-27T18:35:20.773Z,95409.00
2023-02-27T18:36:21.074Z,95411.00
2023-02-27T18:37:20.582Z,95401.00
2023-02-27T18:38:20.590Z,95411.00
2023-02-27T18:39:20.580Z,95409.00
2023-02-27T18:40:20.523Z,95411.00
2023-02-27T18:41:20.518Z,95399.00
2023-02-27T18:42:20.508Z,95399.00
2023-02-27T18:43:20.489Z,95399.00
2023-02-27T18:44:20.489Z,95399.00
2023-02-27T18:45:20.501Z,95399.00
2023-02-27T18:46:20.678Z,95399.00
2023-02-27T18:47:20.456Z,95399.00
2023-02-27T18:48:20.453Z,95397.00
2023-02-27T18:50:20.435Z,95397.00
2023-02-27T18:51:20.442Z,95397.00
2023-02-27T18:52:20.410Z,95395.00
2023-02-27T18:53:20.429Z,95401.00
2023-02-27T18:54:20.393Z,95399.00
2023-02-27T18:55:20.417Z,95397.00
2023-02-27T18:56:20.380Z,95409.00
2023-02-27T18:57:20.368Z,95399.00
2023-02-27T18:58:20.362Z,95399.00
2023-02-27T18:59:21.086Z,95401.00
2023-02-27T19:00:21.082Z,95401.00
2023-02-27T19:01:20.373Z,95411.00
2023-02-27T19:02:20.324Z,95411.00
2023-02-27T19:03:20.394Z,95411.00
2023-02-27T19:04:21.103Z,95413.00
2023-02-27T19:05:20.286Z,95413.00
2023-02-27T19:06:20.289Z,95413.00
2023-02-27T19:07:20.277Z,95415.00
2023-02-27T19:08:20.263Z,95416.00
2023-02-27T19:09:22.176Z,95418.00
2023-02-27T19:10:20.246Z,95420.00
2023-02-27T19:11:20.267Z,95420.00
2023-02-27T19:12:21.089Z,95420.00
2023-02-27T19:13:20.320Z,95418.00
2023-02-27T19:14:20.306Z,95422.00
2023-02-27T19:15:20.302Z,95424.00
2023-02-27T19:16:20.416Z,95422.00
2023-02-27T19:17:20.295Z,95426.00
2023-02-27T19:18:20.289Z,95426.00
2023-02-27T19:19:20.266Z,95426.00
2023-02-27T19:20:20.249Z,95430.00
2023-02-27T19:21:20.260Z,95432.00
2023-02-27T19:22:20.234Z,95428.00
2023-02-27T19:23:21.096Z,95428.00
2023-02-27T19:24:20.214Z,95432.00
2023-02-27T19:25:20.216Z,95430.00
2023-02-27T19:26:21.099Z,95430.00
2023-02-27T19:27:20.220Z,95432.00
2023-02-27T19:28:20.176Z,95430.00
2023-02-27T19:29:20.178Z,95434.00
2023-02-27T19:30:20.598Z,95436.00
2023-02-27T19:31:20.192Z,95436.00
2023-02-27T19:32:21.173Z,95432.00
2023-02-27T19:33:20.132Z,95434.00
2023-02-27T19:34:21.097Z,95434.00
2023-02-27T19:35:20.114Z,95432.00
2023-02-27T19:36:20.110Z,95432.00
2023-02-27T19:37:20.091Z,95434.00
2023-02-27T19:38:20.087Z,95432.00
2023-02-27T19:39:20.077Z,95432.00
2023-02-27T19:40:20.077Z,95432.00
2023-02-27T19:41:20.104Z,95430.00
2023-02-27T19:42:20.047Z,95430.00
2023-02-27T19:43:20.625Z,95432.00
2023-02-27T19:45:20.023Z,95432.00
2023-02-27T19:46:20.159Z,95430.00
2023-02-27T19:47:20.005Z,95428.00
2023-02-27T19:48:20.010Z,95430.00
2023-02-27T19:49:19.981Z,95430.00
2023-02-27T19:50:19.975Z,95430.00
2023-02-27T19:51:19.975Z,95430.00
2023-02-27T19:52:19.954Z,95426.00
2023-02-27T19:53:19.946Z,95426.00
2023-02-27T19:54:19.939Z,95428.00
2023-02-27T19:55:19.936Z,95430.00
2023-02-27T19:56:19.929Z,95428.00
2023-02-27T19:57:20.650Z,95430.00
2023-02-27T19:58:19.897Z,95434.00
2023-02-27T19:59:19.914Z,95436.00
2023-02-27T20:00:19.886Z,95436.00
2023-02-27T20:01:19.878Z,95436.00
2023-02-27T20:02:19.868Z,95436.00
2023-02-27T20:03:20.613Z,95434.00
2023-02-27T20:04:19.932Z,95436.00
2023-02-27T20:05:19.861Z,95434.00
2023-02-27T20:06:20.607Z,95432.00
2023-02-27T20:07:19.825Z,95434.00
2023-02-27T20:08:19.813Z,95432.00
2023-02-27T20:09:19.797Z,95430.00
2023-02-27T20:10:19.886Z,95432.00
2023-02-27T20:11:20.618Z,95432.00
2023-02-27T20:12:19.777Z,95432.00
2023-02-27T20:13:19.762Z,95434.00
2023-02-27T20:14:19.759Z,95432.00
2023-02-27T20:15:19.767Z,95434.00
2023-02-27T20:16:19.807Z,95436.00
2023-02-27T20:17:19.729Z,95436.00
2023-02-27T20:18:19.719Z,95436.00
2023-02-27T20:19:19.708Z,95434.00
2023-02-27T20:20:20.618Z,95436.00
2023-02-27T20:21:19.710Z,95438.00
2023-02-27T20:22:19.677Z,95432.00
2023-02-27T20:23:19.676Z,95434.00
2023-02-27T20:25:19.659Z,95432.00
2023-02-27T20:26:19.654Z,95432.00
2023-02-27T20:27:19.628Z,95434.00
2023-02-27T20:28:19.620Z,95436.00
2023-02-27T20:29:19.633Z,95436.00
2023-02-27T20:30:19.603Z,95438.00
2023-02-27T20:31:19.678Z,95438.00
2023-02-27T20:32:19.809Z,95436.00
2023-02-27T20:33:19.591Z,95438.00
2023-02-27T20:34:19.564Z,95436.00
2023-02-27T20:35:19.560Z,95436.00
2023-02-27T20:36:19.553Z,95438.00
2023-02-27T20:37:19.624Z,95434.00
2023-02-27T20:38:19.533Z,95434.00
2023-02-27T20:39:19.521Z,95432.00
2023-02-27T20:40:26.131Z,95436.00
2023-02-27T20:41:19.565Z,95436.00
2023-02-27T20:42:19.636Z,95434.00
2023-02-27T20:43:19.480Z,95438.00
2023-02-27T20:44:19.470Z,95434.00
2023-02-27T20:45:19.469Z,95434.00
2023-02-27T20:46:19.543Z,95434.00
2023-02-27T20:47:19.476Z,95432.00
2023-02-27T20:48:19.438Z,95432.00
2023-02-27T20:49:19.435Z,95434.00
2023-02-27T20:50:19.419Z,95432.00
2023-02-27T20:51:19.416Z,95434.00
2023-02-27T20:52:19.407Z,95432.00
2023-02-27T20:53:19.403Z,95434.00
2023-02-27T20:54:20.516Z,95434.00
2023-02-27T20:55:19.392Z,95436.00
2023-02-27T20:56:19.364Z,95436.00
2023-02-27T20:57:19.368Z,95434.00
2023-02-27T20:58:19.637Z,95434.00
2023-02-27T20:59:19.340Z,95436.00
2023-02-27T21:00:19.332Z,95434.00
2023-02-27T21:01:19.408Z,95434.00
2023-02-27T21:02:19.315Z,95436.00
2023-02-27T21:03:19.334Z,95436.00
2023-02-27T21:04:22.265Z,95436.00
2023-02-27T21:06:19.292Z,95432.00
2023-02-27T21:07:19.272Z,95436.00
2023-02-27T21:08:19.263Z,95436.00
2023-02-27T21:09:26.130Z,95438.00
2023-02-27T21:10:19.234Z,95436.00
2023-02-27T21:12:19.227Z,95434.00
2023-02-27T21:13:19.214Z,95434.00
2023-02-27T21:14:19.203Z,95434.00
2023-02-27T21:15:19.196Z,95436.00
2023-02-27T21:16:19.281Z,95436.00
2023-02-27T21:17:19.181Z,95434.00
2023-02-27T21:18:19.190Z,95436.00
2023-02-27T21:19:19.188Z,95432.00
2023-02-27T21:20:20.136Z,95436.00
2023-02-27T21:21:19.142Z,95436.00
2023-02-27T21:22:19.131Z,95440.00
2023-02-27T21:23:19.122Z,95438.00
2023-02-27T21:24:19.108Z,95436.00
2023-02-27T21:25:19.634Z,95438.00
2023-02-27T21:26:19.087Z,95436.00
2023-02-27T21:27:19.642Z,95438.00
2023-02-27T21:28:19.069Z,95442.00
2023-02-27T21:29:19.069Z,95436.00
2023-02-27T21:30:19.064Z,95436.00
2023-02-27T21:31:19.177Z,95434.00
2023-02-27T21:32:19.090Z,95434.00
2023-02-27T21:33:19.018Z,95436.00
2023-02-27T21:34:19.647Z,95434.00
2023-02-27T21:36:18.998Z,95432.00
2023-02-27T21:37:19.016Z,95434.00
2023-02-27T21:38:18.983Z,95434.00
2023-02-27T21:39:19.652Z,95434.00
2023-02-27T21:40:19.641Z,95430.00
2023-02-27T21:41:18.948Z,95428.00
2023-02-27T21:42:18.973Z,95428.00
2023-02-27T21:43:18.931Z,95426.00
2023-02-27T21:44:18.926Z,95426.00
2023-02-27T21:45:18.915Z,95428.00
2023-02-27T21:46:18.938Z,95426.00
2023-02-27T21:47:18.989Z,95428.00
2023-02-27T21:48:19.649Z,95426.00
2023-02-27T21:49:18.883Z,95426.00
2023-02-27T21:50:18.862Z,95426.00
2023-02-27T21:51:33.077Z,95430.00
2023-02-27T21:52:18.860Z,95430.00
2023-02-27T21:53:18.838Z,95430.00
2023-02-27T21:54:18.824Z,95428.00
2023-02-27T21:55:18.828Z,95426.00
2023-02-27T21:56:19.644Z,95428.00
2023-02-27T21:57:18.804Z,95428.00
2023-02-27T21:58:18.800Z,95428.00
2023-02-27T21:59:18.788Z,95426.00
2023-02-27T22:00:18.821Z,95424.00
2023-02-27T22:01:19.697Z,95428.00
2023-02-27T22:02:18.841Z,95424.00
2023-02-27T22:03:18.752Z,95424.00
2023-02-27T22:04:18.735Z,95424.00
2023-02-27T22:05:18.725Z,95424.00
2023-02-27T22:06:18.717Z,95426.00
2023-02-27T22:07:19.672Z,95426.00
2023-02-27T22:08:18.704Z,95424.00
2023-02-27T22:09:18.700Z,95424.00
2023-02-27T22:10:18.685Z,95426.00
2023-02-27T22:11:18.671Z,95426.00
2023-02-27T22:12:18.659Z,95428.00
2023-02-27T22:13:18.651Z,95428.00
2023-02-27T22:14:18.655Z,95428.00
2023-02-27T22:15:18.631Z,95428.00
2023-02-27T22:16:18.694Z,95426.00
2023-02-27T22:17:18.614Z,95424.00
2023-02-27T22:18:18.603Z,95426.00
2023-02-27T22:19:18.597Z,95426.00
2023-02-27T22:20:18.590Z,95422.00
2023-02-27T22:21:18.584Z,95426.00
2023-02-27T22:22:18.577Z,95420.00
2023-02-27T22:23:18.592Z,95420.00
2023-02-27T22:24:18.576Z,95424.00
2023-02-27T22:25:18.545Z,95424.00
2023-02-27T22:26:18.546Z,95424.00
2023-02-27T22:27:18.540Z,95426.00
2023-02-27T22:28:18.513Z,95422.00
2023-02-27T22:29:18.508Z,95424.00
2023-02-27T22:30:18.497Z,95422.00
2023-02-27T22:31:18.590Z,95422.00
2023-02-27T22:32:18.509Z,95422.00
2023-02-27T22:33:18.468Z,95422.00
2023-02-27T22:34:18.517Z,95422.00
2023-02-27T22:35:18.448Z,95422.00
2023-02-27T22:36:18.451Z,95420.00
2023-02-27T22:37:18.430Z,95415.00
2023-02-27T22:38:18.482Z,95418.00
2023-02-27T22:39:18.440Z,95416.00
2023-02-27T22:40:18.400Z,95416.00
2023-02-27T22:41:18.416Z,95416.00
2023-02-27T22:42:18.398Z,95416.00
2023-02-27T22:43:18.375Z,95416.00
2023-02-27T22:44:18.366Z,95413.00
2023-02-27T22:45:18.352Z,95415.00
2023-02-27T22:46:18.367Z,95413.00
2023-02-27T22:47:18.370Z,95411.00
2023-02-27T22:48:18.675Z,95409.00
2023-02-27T22:49:18.330Z,95409.00
2023-02-27T22:50:18.336Z,95409.00
2023-02-27T22:51:19.166Z,95409.00
2023-02-27T22:52:18.289Z,95399.00
2023-02-27T22:53:18.283Z,95399.00
2023-02-27T22:54:18.271Z,95399.00
2023-02-27T22:55:18.286Z,95397.00
2023-02-27T22:56:18.256Z,95397.00
2023-02-27T22:57:18.246Z,95397.00
2023-02-27T22:58:18.269Z,95397.00
2023-02-27T22:59:18.233Z,95395.00
2023-02-27T23:00:18.217Z,95397.00
2023-02-27T23:01:18.285Z,95397.00
2023-02-27T23:02:18.196Z,95395.00
2023-02-27T23:03:17.191Z,95395.00
2023-02-27T23:04:18.188Z,95395.00
2023-02-27T23:05:18.177Z,95395.00
2023-02-27T23:06:18.164Z,95395.00
2023-02-27T23:07:18.670Z,95397.00
2023-02-27T23:08:18.143Z,95395.00
2023-02-27T23:09:18.144Z,95397.00
2023-02-27T23:10:18.128Z,95399.00
2023-02-27T23:11:18.150Z,95397.00
2023-02-27T23:12:18.105Z,95395.00
2023-02-27T23:13:18.100Z,95397.00
2023-02-27T23:14:18.090Z,95397.00
2023-02-27T23:15:18.719Z,95397.00
2023-02-27T23:16:18.277Z,95397.00
2023-02-27T23:17:18.059Z,95401.00
2023-02-27T23:18:18.054Z,95401.00
2023-02-27T23:19:18.042Z,95411.00
2023-02-27T23:20:18.040Z,95411.00
2023-02-27T23:21:18.124Z,95409.00
2023-02-27T23:22:18.014Z,95399.00
2023-02-27T23:23:18.007Z,95399.00
2023-02-27T23:24:18.012Z,95401.00
2023-02-27T23:25:17.983Z,95399.00
2023-02-27T23:26:17.982Z,95401.00
2023-02-27T23:27:25.926Z,95409.00
2023-02-27T23:28:17.969Z,95411.00
2023-02-27T23:29:17.948Z,95409.00
2023-02-27T23:30:17.946Z,95409.00
2023-02-27T23:31:17.954Z,95399.00
2023-02-27T23:32:18.080Z,95409.00
2023-02-27T23:33:17.917Z,95409.00
2023-02-27T23:34:17.918Z,95411.00
2023-02-27T23:35:17.897Z,95409.00
2023-02-27T23:36:17.881Z,95409.00
2023-02-27T23:37:17.882Z,95401.00
2023-02-27T23:38:17.866Z,95409.00
2023-02-27T23:40:17.851Z,95411.00
2023-02-27T23:41:17.847Z,95411.00
2023-02-27T23:42:17.838Z,95409.00
2023-02-27T23:43:17.843Z,95411.00
2023-02-27T23:44:17.807Z,95409.00
2023-02-27T23:45:17.795Z,95411.00
2023-02-27T23:46:17.794Z,95409.00
2023-02-27T23:47:18.194Z,95411.00
2023-02-27T23:48:17.776Z,95409.00
2023-02-27T23:49:17.763Z,95413.00
2023-02-27T23:50:17.755Z,95413.00
2023-02-27T23:51:17.746Z,95415.00
2023-02-27T23:52:17.746Z,95415.00
2023-02-27T23:53:18.263Z,95418.00
2023-02-27T23:54:17.724Z,95420.00
2023-02-27T23:55:17.710Z,95418.00
2023-02-27T23:56:17.702Z,95420.00
2023-02-27T23:57:17.694Z,95418.00
2023-02-27T23:58:17.696Z,95418.00
2023-02-27T23:59:17.705Z,95418.00
